sensor_id;sensor_type;location;lat;lon;timestamp;temperature;humidity
5520;DHT22;2782;52.362;10.012;2023-06-14T00:00:33;22.40;48.80
5520;DHT22;2782;52.362;10.012;2023-06-14T00:01:35;22.30;48.70
5520;DHT22;2782;52.362;10.012;2023-06-14T00:02:39;22.30;48.70
5520;DHT22;2782;52.362;10.012;2023-06-14T00:03:40;22.30;48.70
5520;DHT22;2782;52.362;10.012;2023-06-14T00:04:43;22.30;48.70
5520;DHT22;2782;52.362;10.012;2023-06-14T00:05:44;22.30;48.70
5520;DHT22;2782;52.362;10.012;2023-06-14T00:06:47;22.30;48.70
5520;DHT22;2782;52.362;10.012;2023-06-14T00:07:49;22.40;48.70
5520;DHT22;2782;52.362;10.012;2023-06-14T00:08:54;22.40;48.70
5520;DHT22;2782;52.362;10.012;2023-06-14T00:09:55;22.40;48.70
5520;DHT22;2782;52.362;10.012;2023-06-14T00:10:56;22.30;48.70
5520;DHT22;2782;52.362;10.012;2023-06-14T00:11:57;22.40;48.80
5520;DHT22;2782;52.362;10.012;2023-06-14T00:12:59;22.30;48.70
5520;DHT22;2782;52.362;10.012;2023-06-14T00:14:02;22.30;48.60
5520;DHT22;2782;52.362;10.012;2023-06-14T00:15:07;22.40;48.60
5520;DHT22;2782;52.362;10.012;2023-06-14T00:16:10;22.40;48.70
5520;DHT22;2782;52.362;10.012;2023-06-14T00:17:12;22.30;48.60
5520;DHT22;2782;52.362;10.012;2023-06-14T00:18:13;22.30;48.60
5520;DHT22;2782;52.362;10.012;2023-06-14T00:19:17;22.30;48.60
5520;DHT22;2782;52.362;10.012;2023-06-14T00:20:19;22.30;48.60
5520;DHT22;2782;52.362;10.012;2023-06-14T00:21:21;22.30;49.10
5520;DHT22;2782;52.362;10.012;2023-06-14T00:22:22;22.30;48.50
5520;DHT22;2782;52.362;10.012;2023-06-14T00:23:24;22.30;48.50
5520;DHT22;2782;52.362;10.012;2023-06-14T00:24:25;22.30;48.50
5520;DHT22;2782;52.362;10.012;2023-06-14T00:25:27;22.30;48.50
5520;DHT22;2782;52.362;10.012;2023-06-14T00:26:28;22.30;48.40
5520;DHT22;2782;52.362;10.012;2023-06-14T00:27:30;22.30;48.50
5520;DHT22;2782;52.362;10.012;2023-06-14T00:28:30;22.30;48.50
5520;DHT22;2782;52.362;10.012;2023-06-14T00:29:32;22.30;48.50
5520;DHT22;2782;52.362;10.012;2023-06-14T00:30:33;22.30;48.50
5520;DHT22;2782;52.362;10.012;2023-06-14T00:31:34;22.30;48.50
5520;DHT22;2782;52.362;10.012;2023-06-14T00:32:35;22.20;48.40
5520;DHT22;2782;52.362;10.012;2023-06-14T00:33:36;22.20;48.40
5520;DHT22;2782;52.362;10.012;2023-06-14T00:34:37;22.30;48.50
5520;DHT22;2782;52.362;10.012;2023-06-14T00:35:40;22.20;48.40
5520;DHT22;2782;52.362;10.012;2023-06-14T00:36:41;22.20;48.30
5520;DHT22;2782;52.362;10.012;2023-06-14T00:37:42;22.20;48.30
5520;DHT22;2782;52.362;10.012;2023-06-14T00:38:43;22.20;48.40
5520;DHT22;2782;52.362;10.012;2023-06-14T00:39:44;22.20;48.30
5520;DHT22;2782;52.362;10.012;2023-06-14T00:40:45;22.20;48.30
5520;DHT22;2782;52.362;10.012;2023-06-14T00:41:47;22.20;48.40
5520;DHT22;2782;52.362;10.012;2023-06-14T00:42:48;22.20;48.40
5520;DHT22;2782;52.362;10.012;2023-06-14T00:43:50;22.20;48.40
5520;DHT22;2782;52.362;10.012;2023-06-14T00:44:51;22.20;48.40
5520;DHT22;2782;52.362;10.012;2023-06-14T00:45:52;22.20;48.40
5520;DHT22;2782;52.362;10.012;2023-06-14T00:46:53;22.20;48.40
5520;DHT22;2782;52.362;10.012;2023-06-14T00:47:55;22.10;48.30
5520;DHT22;2782;52.362;10.012;2023-06-14T00:48:56;22.20;48.40
5520;DHT22;2782;52.362;10.012;2023-06-14T00:50:00;22.20;48.40
5520;DHT22;2782;52.362;10.012;2023-06-14T00:51:03;22.10;48.30
5520;DHT22;2782;52.362;10.012;2023-06-14T00:52:05;22.10;48.40
5520;DHT22;2782;52.362;10.012;2023-06-14T00:53:06;22.10;48.40
5520;DHT22;2782;52.362;10.012;2023-06-14T00:54:08;22.10;48.40
5520;DHT22;2782;52.362;10.012;2023-06-14T00:55:09;22.10;48.50
5520;DHT22;2782;52.362;10.012;2023-06-14T00:56:10;22.10;48.40
5520;DHT22;2782;52.362;10.012;2023-06-14T00:57:13;22.10;48.40
5520;DHT22;2782;52.362;10.012;2023-06-14T00:58:15;22.10;48.40
5520;DHT22;2782;52.362;10.012;2023-06-14T00:59:16;22.10;48.50
5520;DHT22;2782;52.362;10.012;2023-06-14T01:00:18;22.10;48.40
5520;DHT22;2782;52.362;10.012;2023-06-14T01:01:18;22.10;48.40
5520;DHT22;2782;52.362;10.012;2023-06-14T01:02:21;22.10;48.40
5520;DHT22;2782;52.362;10.012;2023-06-14T01:03:22;22.00;48.30
5520;DHT22;2782;52.362;10.012;2023-06-14T01:04:24;22.10;48.40
5520;DHT22;2782;52.362;10.012;2023-06-14T01:05:25;22.10;48.50
5520;DHT22;2782;52.362;10.012;2023-06-14T01:06:33;22.10;48.40
5520;DHT22;2782;52.362;10.012;2023-06-14T01:07:55;22.00;48.30
5520;DHT22;2782;52.362;10.012;2023-06-14T01:09:06;22.10;48.40
5520;DHT22;2782;52.362;10.012;2023-06-14T01:10:21;22.00;48.40
5520;DHT22;2782;52.362;10.012;2023-06-14T01:11:28;22.00;48.30
5520;DHT22;2782;52.362;10.012;2023-06-14T01:12:33;22.00;48.40
5520;DHT22;2782;52.362;10.012;2023-06-14T01:13:39;22.00;48.40
5520;DHT22;2782;52.362;10.012;2023-06-14T01:14:43;22.00;48.40
5520;DHT22;2782;52.362;10.012;2023-06-14T01:15:46;22.00;49.00
5520;DHT22;2782;52.362;10.012;2023-06-14T01:16:47;22.00;48.50
5520;DHT22;2782;52.362;10.012;2023-06-14T01:17:53;22.00;48.50
5520;DHT22;2782;52.362;10.012;2023-06-14T01:18:54;22.00;48.40
5520;DHT22;2782;52.362;10.012;2023-06-14T01:19:58;22.00;48.40
5520;DHT22;2782;52.362;10.012;2023-06-14T01:21:00;22.00;48.50
5520;DHT22;2782;52.362;10.012;2023-06-14T01:22:08;22.00;48.50
5520;DHT22;2782;52.362;10.012;2023-06-14T01:23:10;22.00;48.50
5520;DHT22;2782;52.362;10.012;2023-06-14T01:24:12;22.00;48.60
5520;DHT22;2782;52.362;10.012;2023-06-14T01:25:13;21.90;48.40
5520;DHT22;2782;52.362;10.012;2023-06-14T01:26:16;21.90;48.50
5520;DHT22;2782;52.362;10.012;2023-06-14T01:27:17;21.90;48.50
5520;DHT22;2782;52.362;10.012;2023-06-14T01:28:21;22.00;48.60
5520;DHT22;2782;52.362;10.012;2023-06-14T01:29:22;21.90;48.50
5520;DHT22;2782;52.362;10.012;2023-06-14T01:30:26;21.90;48.50
5520;DHT22;2782;52.362;10.012;2023-06-14T01:31:27;21.90;48.60
5520;DHT22;2782;52.362;10.012;2023-06-14T01:32:30;21.90;48.60
5520;DHT22;2782;52.362;10.012;2023-06-14T01:33:31;21.90;48.50
5520;DHT22;2782;52.362;10.012;2023-06-14T01:34:34;21.90;48.60
5520;DHT22;2782;52.362;10.012;2023-06-14T01:35:35;21.90;48.60
5520;DHT22;2782;52.362;10.012;2023-06-14T01:36:39;21.90;48.60
5520;DHT22;2782;52.362;10.012;2023-06-14T01:37:42;21.90;48.60
5520;DHT22;2782;52.362;10.012;2023-06-14T01:38:46;21.90;48.60
5520;DHT22;2782;52.362;10.012;2023-06-14T01:39:47;21.90;48.60
5520;DHT22;2782;52.362;10.012;2023-06-14T01:40:50;21.90;48.60
5520;DHT22;2782;52.362;10.012;2023-06-14T01:41:52;21.90;48.60
5520;DHT22;2782;52.362;10.012;2023-06-14T01:42:54;21.80;48.50
5520;DHT22;2782;52.362;10.012;2023-06-14T01:43:55;21.80;48.60
5520;DHT22;2782;52.362;10.012;2023-06-14T01:44:57;21.80;48.50
5520;DHT22;2782;52.362;10.012;2023-06-14T01:45:58;21.80;48.60
5520;DHT22;2782;52.362;10.012;2023-06-14T01:47:00;21.80;48.60
5520;DHT22;2782;52.362;10.012;2023-06-14T01:48:01;21.80;48.60
5520;DHT22;2782;52.362;10.012;2023-06-14T01:49:03;21.80;48.60
5520;DHT22;2782;52.362;10.012;2023-06-14T01:50:05;21.80;48.60
5520;DHT22;2782;52.362;10.012;2023-06-14T01:51:06;21.80;48.50
5520;DHT22;2782;52.362;10.012;2023-06-14T01:52:07;21.80;48.60
5520;DHT22;2782;52.362;10.012;2023-06-14T01:53:10;21.80;48.50
5520;DHT22;2782;52.362;10.012;2023-06-14T01:54:12;21.80;48.50
5520;DHT22;2782;52.362;10.012;2023-06-14T01:55:14;21.80;48.50
5520;DHT22;2782;52.362;10.012;2023-06-14T01:56:15;21.80;48.50
5520;DHT22;2782;52.362;10.012;2023-06-14T01:57:17;21.80;48.50
5520;DHT22;2782;52.362;10.012;2023-06-14T01:58:18;21.80;48.50
5520;DHT22;2782;52.362;10.012;2023-06-14T01:59:19;21.80;48.50
5520;DHT22;2782;52.362;10.012;2023-06-14T02:00:20;21.80;48.50
5520;DHT22;2782;52.362;10.012;2023-06-14T02:01:21;21.80;48.50
5520;DHT22;2782;52.362;10.012;2023-06-14T02:02:22;21.80;48.50
5520;DHT22;2782;52.362;10.012;2023-06-14T02:03:24;21.80;48.60
5520;DHT22;2782;52.362;10.012;2023-06-14T02:04:25;21.80;48.60
5520;DHT22;2782;52.362;10.012;2023-06-14T02:05:26;21.80;48.60
5520;DHT22;2782;52.362;10.012;2023-06-14T02:06:27;21.80;48.60
5520;DHT22;2782;52.362;10.012;2023-06-14T02:07:29;21.80;48.60
5520;DHT22;2782;52.362;10.012;2023-06-14T02:08:29;21.70;48.60
5520;DHT22;2782;52.362;10.012;2023-06-14T02:09:32;21.80;48.80
5520;DHT22;2782;52.362;10.012;2023-06-14T02:10:33;21.70;48.70
5520;DHT22;2782;52.362;10.012;2023-06-14T02:11:34;21.70;48.70
5520;DHT22;2782;52.362;10.012;2023-06-14T02:12:35;21.70;48.70
5520;DHT22;2782;52.362;10.012;2023-06-14T02:13:37;21.70;48.70
5520;DHT22;2782;52.362;10.012;2023-06-14T02:14:37;21.70;48.70
5520;DHT22;2782;52.362;10.012;2023-06-14T02:15:39;21.70;48.70
5520;DHT22;2782;52.362;10.012;2023-06-14T02:16:40;21.80;48.80
5520;DHT22;2782;52.362;10.012;2023-06-14T02:17:49;21.70;48.70
5520;DHT22;2782;52.362;10.012;2023-06-14T02:18:49;21.80;48.70
5520;DHT22;2782;52.362;10.012;2023-06-14T02:19:51;21.70;48.70
5520;DHT22;2782;52.362;10.012;2023-06-14T02:20:53;21.70;48.70
5520;DHT22;2782;52.362;10.012;2023-06-14T02:21:54;21.70;48.70
5520;DHT22;2782;52.362;10.012;2023-06-14T02:22:56;21.70;48.70
5520;DHT22;2782;52.362;10.012;2023-06-14T02:23:56;21.70;48.60
5520;DHT22;2782;52.362;10.012;2023-06-14T02:25:00;21.70;48.70
5520;DHT22;2782;52.362;10.012;2023-06-14T02:26:00;21.70;48.70
5520;DHT22;2782;52.362;10.012;2023-06-14T02:27:03;21.70;48.70
5520;DHT22;2782;52.362;10.012;2023-06-14T02:28:04;21.70;48.70
5520;DHT22;2782;52.362;10.012;2023-06-14T02:29:06;21.70;48.80
5520;DHT22;2782;52.362;10.012;2023-06-14T02:30:08;21.70;48.80
5520;DHT22;2782;52.362;10.012;2023-06-14T02:31:11;21.70;48.80
5520;DHT22;2782;52.362;10.012;2023-06-14T02:32:11;21.70;48.70
5520;DHT22;2782;52.362;10.012;2023-06-14T02:33:13;21.70;48.60
5520;DHT22;2782;52.362;10.012;2023-06-14T02:34:14;21.70;48.60
5520;DHT22;2782;52.362;10.012;2023-06-14T02:35:17;21.70;48.60
5520;DHT22;2782;52.362;10.012;2023-06-14T02:36:18;21.70;48.70
5520;DHT22;2782;52.362;10.012;2023-06-14T02:37:19;21.60;48.70
5520;DHT22;2782;52.362;10.012;2023-06-14T02:38:20;21.70;48.80
5520;DHT22;2782;52.362;10.012;2023-06-14T02:39:22;21.70;48.80
5520;DHT22;2782;52.362;10.012;2023-06-14T02:40:24;21.60;48.80
5520;DHT22;2782;52.362;10.012;2023-06-14T02:41:26;21.70;48.90
5520;DHT22;2782;52.362;10.012;2023-06-14T02:42:27;21.60;48.70
5520;DHT22;2782;52.362;10.012;2023-06-14T02:43:29;21.70;48.80
5520;DHT22;2782;52.362;10.012;2023-06-14T02:44:30;21.60;48.70
5520;DHT22;2782;52.362;10.012;2023-06-14T02:45:32;21.70;48.80
5520;DHT22;2782;52.362;10.012;2023-06-14T02:46:33;21.70;48.80
5520;DHT22;2782;52.362;10.012;2023-06-14T02:47:34;21.70;48.80
5520;DHT22;2782;52.362;10.012;2023-06-14T02:48:35;21.70;48.80
5520;DHT22;2782;52.362;10.012;2023-06-14T02:49:37;21.70;48.80
5520;DHT22;2782;52.362;10.012;2023-06-14T02:50:37;21.70;48.80
5520;DHT22;2782;52.362;10.012;2023-06-14T02:51:39;21.70;48.80
5520;DHT22;2782;52.362;10.012;2023-06-14T02:52:40;21.70;48.80
5520;DHT22;2782;52.362;10.012;2023-06-14T02:53:42;21.70;48.80
5520;DHT22;2782;52.362;10.012;2023-06-14T02:54:44;21.70;48.80
5520;DHT22;2782;52.362;10.012;2023-06-14T02:55:49;21.70;48.80
5520;DHT22;2782;52.362;10.012;2023-06-14T02:56:49;21.70;48.80
5520;DHT22;2782;52.362;10.012;2023-06-14T02:57:51;21.70;48.90
5520;DHT22;2782;52.362;10.012;2023-06-14T02:58:53;21.70;48.90
5520;DHT22;2782;52.362;10.012;2023-06-14T02:59:56;21.60;48.80
5520;DHT22;2782;52.362;10.012;2023-06-14T03:00:57;21.70;48.90
5520;DHT22;2782;52.362;10.012;2023-06-14T03:02:01;21.60;48.90
5520;DHT22;2782;52.362;10.012;2023-06-14T03:03:03;21.60;48.80
5520;DHT22;2782;52.362;10.012;2023-06-14T03:04:05;21.60;48.90
5520;DHT22;2782;52.362;10.012;2023-06-14T03:05:06;21.60;48.90
5520;DHT22;2782;52.362;10.012;2023-06-14T03:06:08;21.60;48.90
5520;DHT22;2782;52.362;10.012;2023-06-14T03:07:10;21.60;48.90
5520;DHT22;2782;52.362;10.012;2023-06-14T03:08:12;21.60;48.90
5520;DHT22;2782;52.362;10.012;2023-06-14T03:09:17;21.60;48.90
5520;DHT22;2782;52.362;10.012;2023-06-14T03:10:17;21.60;49.00
5520;DHT22;2782;52.362;10.012;2023-06-14T03:11:20;21.60;49.00
5520;DHT22;2782;52.362;10.012;2023-06-14T03:12:21;21.60;49.00
5520;DHT22;2782;52.362;10.012;2023-06-14T03:13:24;21.60;49.00
5520;DHT22;2782;52.362;10.012;2023-06-14T03:14:24;21.60;49.10
5520;DHT22;2782;52.362;10.012;2023-06-14T03:15:26;21.60;49.00
5520;DHT22;2782;52.362;10.012;2023-06-14T03:16:27;21.60;49.10
5520;DHT22;2782;52.362;10.012;2023-06-14T03:17:30;21.50;49.00
5520;DHT22;2782;52.362;10.012;2023-06-14T03:18:33;21.60;49.10
5520;DHT22;2782;52.362;10.012;2023-06-14T03:19:35;21.50;49.10
5520;DHT22;2782;52.362;10.012;2023-06-14T03:20:36;21.50;49.10
5520;DHT22;2782;52.362;10.012;2023-06-14T03:21:37;21.50;49.10
5520;DHT22;2782;52.362;10.012;2023-06-14T03:22:39;21.50;49.00
5520;DHT22;2782;52.362;10.012;2023-06-14T03:23:41;21.50;49.10
5520;DHT22;2782;52.362;10.012;2023-06-14T03:24:41;21.50;49.10
5520;DHT22;2782;52.362;10.012;2023-06-14T03:25:45;21.50;49.10
5520;DHT22;2782;52.362;10.012;2023-06-14T03:26:47;21.50;49.10
5520;DHT22;2782;52.362;10.012;2023-06-14T03:27:48;21.50;49.10
5520;DHT22;2782;52.362;10.012;2023-06-14T03:28:49;21.50;49.20
5520;DHT22;2782;52.362;10.012;2023-06-14T03:29:51;21.50;49.20
5520;DHT22;2782;52.362;10.012;2023-06-14T03:30:51;21.50;49.20
5520;DHT22;2782;52.362;10.012;2023-06-14T03:31:58;21.50;49.20
5520;DHT22;2782;52.362;10.012;2023-06-14T03:32:59;21.50;49.20
5520;DHT22;2782;52.362;10.012;2023-06-14T03:34:01;21.50;49.20
5520;DHT22;2782;52.362;10.012;2023-06-14T03:35:03;21.50;49.20
5520;DHT22;2782;52.362;10.012;2023-06-14T03:36:05;21.50;49.30
5520;DHT22;2782;52.362;10.012;2023-06-14T03:37:08;21.50;49.30
5520;DHT22;2782;52.362;10.012;2023-06-14T03:38:08;21.50;49.20
5520;DHT22;2782;52.362;10.012;2023-06-14T03:39:10;21.50;49.30
5520;DHT22;2782;52.362;10.012;2023-06-14T03:40:12;21.50;49.30
5520;DHT22;2782;52.362;10.012;2023-06-14T03:41:13;21.40;49.20
5520;DHT22;2782;52.362;10.012;2023-06-14T03:42:15;21.50;49.20
5520;DHT22;2782;52.362;10.012;2023-06-14T03:43:17;21.50;49.20
5520;DHT22;2782;52.362;10.012;2023-06-14T03:44:18;21.40;49.10
5520;DHT22;2782;52.362;10.012;2023-06-14T03:45:20;21.50;49.20
5520;DHT22;2782;52.362;10.012;2023-06-14T03:46:21;21.40;49.20
5520;DHT22;2782;52.362;10.012;2023-06-14T03:47:22;21.50;49.30
5520;DHT22;2782;52.362;10.012;2023-06-14T03:48:23;21.50;49.30
5520;DHT22;2782;52.362;10.012;2023-06-14T03:49:24;21.50;49.40
5520;DHT22;2782;52.362;10.012;2023-06-14T03:50:26;21.50;49.30
5520;DHT22;2782;52.362;10.012;2023-06-14T03:51:28;21.50;49.30
5520;DHT22;2782;52.362;10.012;2023-06-14T03:52:29;21.50;49.30
5520;DHT22;2782;52.362;10.012;2023-06-14T03:53:31;21.50;49.20
5520;DHT22;2782;52.362;10.012;2023-06-14T03:54:32;21.50;49.20
5520;DHT22;2782;52.362;10.012;2023-06-14T03:55:33;21.60;49.30
5520;DHT22;2782;52.362;10.012;2023-06-14T03:56:34;21.60;49.20
5520;DHT22;2782;52.362;10.012;2023-06-14T03:57:37;21.60;49.20
5520;DHT22;2782;52.362;10.012;2023-06-14T03:58:38;21.60;49.10
5520;DHT22;2782;52.362;10.012;2023-06-14T03:59:39;21.60;49.10
5520;DHT22;2782;52.362;10.012;2023-06-14T04:00:41;21.60;49.00
5520;DHT22;2782;52.362;10.012;2023-06-14T04:01:43;21.60;49.10
5520;DHT22;2782;52.362;10.012;2023-06-14T04:02:45;21.70;49.10
5520;DHT22;2782;52.362;10.012;2023-06-14T04:03:47;21.70;49.10
5520;DHT22;2782;52.362;10.012;2023-06-14T04:04:48;21.70;49.10
5520;DHT22;2782;52.362;10.012;2023-06-14T04:05:50;21.70;49.00
5520;DHT22;2782;52.362;10.012;2023-06-14T04:06:52;21.70;49.00
5520;DHT22;2782;52.362;10.012;2023-06-14T04:07:54;21.70;49.00
5520;DHT22;2782;52.362;10.012;2023-06-14T04:08:56;21.70;48.90
5520;DHT22;2782;52.362;10.012;2023-06-14T04:10:01;21.80;49.00
5520;DHT22;2782;52.362;10.012;2023-06-14T04:11:02;21.80;49.00
5520;DHT22;2782;52.362;10.012;2023-06-14T04:12:04;21.80;49.00
5520;DHT22;2782;52.362;10.012;2023-06-14T04:13:07;21.80;48.90
5520;DHT22;2782;52.362;10.012;2023-06-14T04:14:12;21.80;49.00
5520;DHT22;2782;52.362;10.012;2023-06-14T04:15:13;21.80;48.70
5520;DHT22;2782;52.362;10.012;2023-06-14T04:16:15;21.70;48.20
5520;DHT22;2782;52.362;10.012;2023-06-14T04:17:16;21.50;48.20
5520;DHT22;2782;52.362;10.012;2023-06-14T04:18:17;21.30;48.30
5520;DHT22;2782;52.362;10.012;2023-06-14T04:19:20;21.20;48.60
5520;DHT22;2782;52.362;10.012;2023-06-14T04:20:21;21.10;48.80
5520;DHT22;2782;52.362;10.012;2023-06-14T04:21:22;20.90;49.00
5520;DHT22;2782;52.362;10.012;2023-06-14T04:22:24;20.80;49.30
5520;DHT22;2782;52.362;10.012;2023-06-14T04:23:28;20.70;49.60
5520;DHT22;2782;52.362;10.012;2023-06-14T04:24:30;20.60;49.90
5520;DHT22;2782;52.362;10.012;2023-06-14T04:25:32;20.50;50.00
5520;DHT22;2782;52.362;10.012;2023-06-14T04:26:34;20.40;50.20
5520;DHT22;2782;52.362;10.012;2023-06-14T04:27:35;20.40;50.40
5520;DHT22;2782;52.362;10.012;2023-06-14T04:28:38;20.30;50.70
5520;DHT22;2782;52.362;10.012;2023-06-14T04:29:41;20.20;50.80
5520;DHT22;2782;52.362;10.012;2023-06-14T04:30:44;20.20;51.10
5520;DHT22;2782;52.362;10.012;2023-06-14T04:31:45;20.20;51.40
5520;DHT22;2782;52.362;10.012;2023-06-14T04:32:47;20.20;51.70
5520;DHT22;2782;52.362;10.012;2023-06-14T04:33:49;20.20;52.20
5520;DHT22;2782;52.362;10.012;2023-06-14T04:34:55;20.20;51.90
5520;DHT22;2782;52.362;10.012;2023-06-14T04:35:56;20.20;51.50
5520;DHT22;2782;52.362;10.012;2023-06-14T04:36:58;20.20;51.30
5520;DHT22;2782;52.362;10.012;2023-06-14T04:38:00;20.20;51.50
5520;DHT22;2782;52.362;10.012;2023-06-14T04:39:03;20.20;51.40
5520;DHT22;2782;52.362;10.012;2023-06-14T04:40:06;20.20;51.40
5520;DHT22;2782;52.362;10.012;2023-06-14T04:41:08;20.20;51.20
5520;DHT22;2782;52.362;10.012;2023-06-14T04:42:12;20.20;51.20
5520;DHT22;2782;52.362;10.012;2023-06-14T04:43:15;20.20;51.80
5520;DHT22;2782;52.362;10.012;2023-06-14T04:44:19;20.30;51.50
5520;DHT22;2782;52.362;10.012;2023-06-14T04:45:21;20.30;51.70
5520;DHT22;2782;52.362;10.012;2023-06-14T04:46:22;20.30;51.80
5520;DHT22;2782;52.362;10.012;2023-06-14T04:47:24;20.40;52.30
5520;DHT22;2782;52.362;10.012;2023-06-14T04:48:25;20.50;51.60
5520;DHT22;2782;52.362;10.012;2023-06-14T04:49:27;20.60;51.60
5520;DHT22;2782;52.362;10.012;2023-06-14T04:50:28;20.70;51.80
5520;DHT22;2782;52.362;10.012;2023-06-14T04:51:30;20.70;51.20
5520;DHT22;2782;52.362;10.012;2023-06-14T04:52:31;20.70;51.10
5520;DHT22;2782;52.362;10.012;2023-06-14T04:53:33;20.70;51.00
5520;DHT22;2782;52.362;10.012;2023-06-14T04:54:34;20.80;51.00
5520;DHT22;2782;52.362;10.012;2023-06-14T04:55:37;20.80;51.10
5520;DHT22;2782;52.362;10.012;2023-06-14T04:56:38;20.80;50.90
5520;DHT22;2782;52.362;10.012;2023-06-14T04:57:40;20.80;50.90
5520;DHT22;2782;52.362;10.012;2023-06-14T04:58:42;20.90;50.70
5520;DHT22;2782;52.362;10.012;2023-06-14T04:59:45;20.90;50.60
5520;DHT22;2782;52.362;10.012;2023-06-14T05:00:46;20.90;50.50
5520;DHT22;2782;52.362;10.012;2023-06-14T05:01:47;20.90;50.50
5520;DHT22;2782;52.362;10.012;2023-06-14T05:02:48;20.90;50.50
5520;DHT22;2782;52.362;10.012;2023-06-14T05:03:51;20.90;50.40
5520;DHT22;2782;52.362;10.012;2023-06-14T05:04:53;20.90;50.40
5520;DHT22;2782;52.362;10.012;2023-06-14T05:05:57;20.90;50.40
5520;DHT22;2782;52.362;10.012;2023-06-14T05:06:57;20.80;50.30
5520;DHT22;2782;52.362;10.012;2023-06-14T05:07:59;20.80;50.50
5520;DHT22;2782;52.362;10.012;2023-06-14T05:08:59;20.80;50.80
5520;DHT22;2782;52.362;10.012;2023-06-14T05:10:01;20.70;50.80
5520;DHT22;2782;52.362;10.012;2023-06-14T05:11:02;20.80;51.00
5520;DHT22;2782;52.362;10.012;2023-06-14T05:12:04;20.70;50.80
5520;DHT22;2782;52.362;10.012;2023-06-14T05:13:08;20.70;50.90
5520;DHT22;2782;52.362;10.012;2023-06-14T05:14:11;20.70;50.90
5520;DHT22;2782;52.362;10.012;2023-06-14T05:15:13;20.70;50.90
5520;DHT22;2782;52.362;10.012;2023-06-14T05:16:15;20.70;51.00
5520;DHT22;2782;52.362;10.012;2023-06-14T05:17:17;20.70;50.90
5520;DHT22;2782;52.362;10.012;2023-06-14T05:18:18;20.70;51.10
5520;DHT22;2782;52.362;10.012;2023-06-14T05:19:20;20.70;51.20
5520;DHT22;2782;52.362;10.012;2023-06-14T05:20:23;20.70;51.10
5520;DHT22;2782;52.362;10.012;2023-06-14T05:21:26;20.70;51.20
5520;DHT22;2782;52.362;10.012;2023-06-14T05:22:27;20.70;51.00
5520;DHT22;2782;52.362;10.012;2023-06-14T05:23:28;20.70;51.20
5520;DHT22;2782;52.362;10.012;2023-06-14T05:24:29;20.70;51.00
5520;DHT22;2782;52.362;10.012;2023-06-14T05:25:32;20.70;50.90
5520;DHT22;2782;52.362;10.012;2023-06-14T05:26:33;20.70;51.00
5520;DHT22;2782;52.362;10.012;2023-06-14T05:27:35;20.60;51.30
5520;DHT22;2782;52.362;10.012;2023-06-14T05:28:37;20.70;51.40
5520;DHT22;2782;52.362;10.012;2023-06-14T05:29:39;20.60;51.40
5520;DHT22;2782;52.362;10.012;2023-06-14T05:30:41;20.60;51.50
5520;DHT22;2782;52.362;10.012;2023-06-14T05:31:44;20.70;51.80
5520;DHT22;2782;52.362;10.012;2023-06-14T05:32:45;20.70;52.00
5520;DHT22;2782;52.362;10.012;2023-06-14T05:33:46;20.70;51.80
5520;DHT22;2782;52.362;10.012;2023-06-14T05:34:47;20.70;51.90
5520;DHT22;2782;52.362;10.012;2023-06-14T05:35:48;20.80;52.30
5520;DHT22;2782;52.362;10.012;2023-06-14T05:36:50;20.70;52.00
5520;DHT22;2782;52.362;10.012;2023-06-14T05:37:51;20.80;52.00
5520;DHT22;2782;52.362;10.012;2023-06-14T05:38:52;20.80;51.70
5520;DHT22;2782;52.362;10.012;2023-06-14T05:39:57;20.80;51.70
5520;DHT22;2782;52.362;10.012;2023-06-14T05:40:58;20.80;51.90
5520;DHT22;2782;52.362;10.012;2023-06-14T05:42:00;20.80;51.70
5520;DHT22;2782;52.362;10.012;2023-06-14T05:43:00;20.80;51.80
5520;DHT22;2782;52.362;10.012;2023-06-14T05:44:02;20.80;51.80
5520;DHT22;2782;52.362;10.012;2023-06-14T05:45:03;20.80;52.00
5520;DHT22;2782;52.362;10.012;2023-06-14T05:46:07;20.90;52.10
5520;DHT22;2782;52.362;10.012;2023-06-14T05:47:08;20.90;51.90
5520;DHT22;2782;52.362;10.012;2023-06-14T05:48:09;20.80;51.60
5520;DHT22;2782;52.362;10.012;2023-06-14T05:49:10;20.80;52.10
5520;DHT22;2782;52.362;10.012;2023-06-14T05:50:12;20.90;51.90
5520;DHT22;2782;52.362;10.012;2023-06-14T05:51:13;20.90;51.70
5520;DHT22;2782;52.362;10.012;2023-06-14T05:52:15;20.90;51.80
5520;DHT22;2782;52.362;10.012;2023-06-14T05:53:15;20.90;52.00
5520;DHT22;2782;52.362;10.012;2023-06-14T05:54:17;20.90;52.20
5520;DHT22;2782;52.362;10.012;2023-06-14T05:55:17;20.90;52.20
5520;DHT22;2782;52.362;10.012;2023-06-14T05:56:19;21.00;51.90
5520;DHT22;2782;52.362;10.012;2023-06-14T05:57:20;20.90;52.40
5520;DHT22;2782;52.362;10.012;2023-06-14T05:58:21;20.90;51.90
5520;DHT22;2782;52.362;10.012;2023-06-14T05:59:22;21.00;52.40
5520;DHT22;2782;52.362;10.012;2023-06-14T06:00:24;21.00;52.00
5520;DHT22;2782;52.362;10.012;2023-06-14T06:01:26;21.00;51.60
5520;DHT22;2782;52.362;10.012;2023-06-14T06:02:28;20.90;51.50
5520;DHT22;2782;52.362;10.012;2023-06-14T06:03:29;20.90;51.60
5520;DHT22;2782;52.362;10.012;2023-06-14T06:04:30;20.90;51.70
5520;DHT22;2782;52.362;10.012;2023-06-14T06:05:32;21.00;51.90
5520;DHT22;2782;52.362;10.012;2023-06-14T06:06:33;21.00;51.70
5520;DHT22;2782;52.362;10.012;2023-06-14T06:07:35;20.90;51.50
5520;DHT22;2782;52.362;10.012;2023-06-14T06:08:37;21.00;51.80
5520;DHT22;2782;52.362;10.012;2023-06-14T06:09:38;21.00;51.70
5520;DHT22;2782;52.362;10.012;2023-06-14T06:10:40;21.00;51.80
5520;DHT22;2782;52.362;10.012;2023-06-14T06:11:40;21.00;51.70
5520;DHT22;2782;52.362;10.012;2023-06-14T06:12:42;21.10;51.70
5520;DHT22;2782;52.362;10.012;2023-06-14T06:13:43;21.10;51.50
5520;DHT22;2782;52.362;10.012;2023-06-14T06:14:45;21.20;51.60
5520;DHT22;2782;52.362;10.012;2023-06-14T06:15:46;21.20;51.50
5520;DHT22;2782;52.362;10.012;2023-06-14T06:16:48;21.30;51.50
5520;DHT22;2782;52.362;10.012;2023-06-14T06:17:50;21.40;51.60
5520;DHT22;2782;52.362;10.012;2023-06-14T06:18:51;21.40;51.40
5520;DHT22;2782;52.362;10.012;2023-06-14T06:19:54;21.40;51.30
5520;DHT22;2782;52.362;10.012;2023-06-14T06:20:54;21.50;51.20
5520;DHT22;2782;52.362;10.012;2023-06-14T06:21:56;21.50;51.20
5520;DHT22;2782;52.362;10.012;2023-06-14T06:22:56;21.50;51.20
5520;DHT22;2782;52.362;10.012;2023-06-14T06:23:58;21.50;51.00
5520;DHT22;2782;52.362;10.012;2023-06-14T06:25:01;21.50;50.90
5520;DHT22;2782;52.362;10.012;2023-06-14T06:26:03;21.60;50.90
5520;DHT22;2782;52.362;10.012;2023-06-14T06:27:05;21.60;50.90
5520;DHT22;2782;52.362;10.012;2023-06-14T06:28:08;21.60;50.90
5520;DHT22;2782;52.362;10.012;2023-06-14T06:29:09;21.60;50.90
5520;DHT22;2782;52.362;10.012;2023-06-14T06:30:11;21.60;50.70
5520;DHT22;2782;52.362;10.012;2023-06-14T06:31:13;21.70;50.70
5520;DHT22;2782;52.362;10.012;2023-06-14T06:32:16;21.70;50.70
5520;DHT22;2782;52.362;10.012;2023-06-14T06:33:17;21.70;50.60
5520;DHT22;2782;52.362;10.012;2023-06-14T06:34:19;21.70;50.70
5520;DHT22;2782;52.362;10.012;2023-06-14T06:35:20;21.70;50.70
5520;DHT22;2782;52.362;10.012;2023-06-14T06:36:21;21.70;50.70
5520;DHT22;2782;52.362;10.012;2023-06-14T06:37:22;21.70;50.80